Time;durP1;ratioP1;P1;durP2;ratioP2;P2;SDS_P1;SDS_P2;PMS_P1;PMS_P2;Temp;Humidity;BMP_temperature;BMP_pressure;BME280_temperature;BME280_humidity;BME280_pressure;Samples;Min_cycle;Max_cycle;Signal;HPM_P1;HPM_P2
2023/08/21 00:02:13;;;;;;;6.12;4.18;;;;;;;25.74;68.33;99623.41;7259838;40;20257;31
2023/08/21 00:07:33;;;;;;;6.80;4.30;;;;;;;25.68;68.16;99616.12;7256321;40;20290;31
2023/08/21 00:13:09;;;;;;;4.55;3.95;;;;;;;25.60;68.57;99621.25;7291586;39;20581;31
2023/08/21 00:18:44;;;;;;;5.16;4.08;;;;;;;25.58;68.80;99621.53;7315581;39;20430;31
2023/08/21 00:24:19;;;;;;;5.65;4.28;;;;;;;25.52;69.13;99617.81;7292374;39;20827;31
2023/08/21 00:29:55;;;;;;;4.80;4.15;;;;;;;25.61;69.47;99622.91;7253627;40;20253;31
2023/08/21 00:35:15;;;;;;;5.85;3.90;;;;;;;25.58;68.89;99616.81;7295846;39;20535;31
2023/08/21 00:40:35;;;;;;;6.20;4.30;;;;;;;25.60;68.06;99612.97;7293737;39;20272;31
2023/08/21 00:51:13;;;;;;;4.70;4.30;;;;;;;25.72;68.59;99628.31;7331916;39;21132;31
2023/08/21 01:01:49;;;;;;;5.70;4.43;;;;;;;25.62;68.71;99622.69;7375506;39;21093;31
2023/08/21 01:12:26;;;;;;;5.75;4.30;;;;;;;25.39;69.70;99629.19;7365518;39;21292;31
2023/08/21 01:22:47;;;;;;;6.53;4.70;;;;;;;25.18;71.02;99634.66;7352925;39;20716;31
2023/08/21 01:28:23;;;;;;;8.22;5.12;;;;;;;25.10;71.28;99639.47;7340844;39;20244;31
2023/08/21 01:33:53;;;;;;;6.53;4.65;;;;;;;25.06;71.29;99640.22;7315099;39;20279;31
2023/08/21 01:44:31;;;;;;;5.65;4.58;;;;;;;25.01;71.21;99635.44;7317014;39;21134;31
2023/08/21 01:49:52;;;;;;;6.52;4.74;;;;;;;25.01;71.16;99643.72;7275754;40;20267;31
2023/08/21 01:55:10;;;;;;;6.82;4.60;;;;;;;24.93;70.46;99641.38;7285480;40;20319;31
2023/08/21 02:06:43;;;;;;;6.50;4.85;;;;;;;24.56;71.87;99651.16;7344932;39;22210;31
2023/08/21 02:17:05;;;;;;;11.87;4.70;;;;;;;24.67;72.31;99650.25;7325727;39;21071;31
2023/08/21 02:22:39;;;;;;;9.43;5.00;;;;;;;24.73;72.34;99656.69;7340602;39;20260;31
2023/08/21 02:27:59;;;;;;;5.65;4.90;;;;;;;24.72;71.61;99655.03;7348782;39;20255;31
2023/08/21 02:33:34;;;;;;;7.68;4.50;;;;;;;24.60;72.75;99653.16;7294603;39;20442;31
2023/08/21 02:39:08;;;;;;;12.17;5.00;;;;;;;24.58;72.78;99660.84;7252209;40;20265;31
2023/08/21 02:44:25;;;;;;;5.03;4.57;;;;;;;24.57;71.92;99647.31;7260654;40;21134;31
2023/08/21 02:49:45;;;;;;;6.50;4.65;;;;;;;24.56;72.18;99652.00;7331352;39;20262;31
2023/08/21 02:55:20;;;;;;;7.10;4.70;;;;;;;24.53;71.77;99646.09;7319120;39;21497;31
2023/08/21 03:00:37;;;;;;;5.90;5.23;;;;;;;24.19;72.32;99643.25;7306525;39;20358;31
2023/08/21 03:11:13;;;;;;;6.40;5.28;;;;;;;23.86;75.34;99640.31;7294361;39;20788;31
2023/08/21 03:16:48;;;;;;;9.77;5.00;;;;;;;23.94;74.99;99637.19;7266573;39;20267;31
2023/08/21 03:22:06;;;;;;;6.66;5.36;;;;;;;24.07;72.93;99645.19;7286745;39;20271;31
2023/08/21 03:27:44;;;;;;;5.82;4.62;;;;;;;24.06;74.19;99640.72;7336367;39;20266;31
2023/08/21 03:33:03;;;;;;;5.80;4.90;;;;;;;23.98;73.30;99641.13;7280071;40;20319;31
2023/08/21 03:38:22;;;;;;;5.60;5.00;;;;;;;24.01;73.87;99645.28;7314432;39;21534;31
2023/08/21 03:43:57;;;;;;;6.15;4.70;;;;;;;23.91;75.01;99637.66;7337515;39;20252;31
2023/08/21 03:49:32;;;;;;;6.80;5.35;;;;;;;23.95;74.61;99638.03;7321929;39;20335;31
2023/08/21 03:54:50;;;;;;;7.00;4.90;;;;;;;23.89;73.75;99642.56;7073578;39;20438;31
2023/08/21 04:00:26;;;;;;;6.67;5.13;;;;;;;23.73;74.76;99643.31;7275592;39;20246;31
2023/08/21 04:06:01;;;;;;;5.20;4.70;;;;;;;23.81;75.39;99648.47;7238338;40;20246;31
2023/08/21 04:11:36;;;;;;;6.95;5.05;;;;;;;23.88;74.91;99645.56;7250073;39;20339;31
2023/08/21 04:17:12;;;;;;;6.70;4.65;;;;;;;23.63;74.42;99660.44;7238817;40;20249;31
2023/08/21 04:22:33;;;;;;;7.50;5.30;;;;;;;23.40;75.48;99659.56;7236596;40;20260;31
2023/08/21 04:27:53;;;;;;;8.47;5.40;;;;;;;23.38;75.52;99659.81;7280927;39;20252;31
2023/08/21 04:33:25;;;;;;;6.98;5.07;;;;;;;23.44;75.83;99666.28;7336082;39;20243;31
2023/08/21 04:38:43;;;;;;;7.45;4.78;;;;;;;23.61;74.51;99662.56;7301074;39;20350;31
2023/08/21 04:44:04;;;;;;;7.55;5.00;;;;;;;23.46;75.87;99667.75;7309808;39;20310;31
2023/08/21 04:49:40;;;;;;;7.47;4.93;;;;;;;23.45;75.65;99676.22;7323150;39;20488;31
2023/08/21 04:55:01;;;;;;;8.43;5.20;;;;;;;23.60;75.33;99679.34;7306824;39;20244;31
2023/08/21 05:00:36;;;;;;;6.35;5.10;;;;;;;23.64;76.29;99669.53;7295913;40;20251;31
2023/08/21 05:06:12;;;;;;;6.70;5.85;;;;;;;23.71;75.96;99681.25;7295223;40;20524;31
2023/08/21 05:11:33;;;;;;;6.95;5.82;;;;;;;23.59;76.05;99686.78;7262735;40;20419;31
2023/08/21 05:17:08;;;;;;;8.43;5.22;;;;;;;23.66;76.74;99687.47;7276876;40;20286;31
2023/08/21 05:22:45;;;;;;;8.05;4.97;;;;;;;23.79;74.56;99683.63;7265372;40;20268;31
2023/08/21 05:28:06;;;;;;;9.32;5.15;;;;;;;23.87;74.68;99693.47;7288344;40;20252;31
2023/08/21 05:33:41;;;;;;;6.40;5.80;;;;;;;23.90;76.27;99691.06;7284511;40;21350;31
2023/08/21 05:39:14;;;;;;;6.53;5.78;;;;;;;23.99;74.86;99695.13;7252822;40;20252;31
2023/08/21 05:49:40;;;;;;;6.80;5.80;;;;;;;23.92;76.69;99705.41;7288238;39;20274;31
2023/08/21 06:00:19;;;;;;;8.23;6.00;;;;;;;23.96;77.28;99709.38;7259081;39;21535;31
2023/08/21 06:05:51;;;;;;;7.07;5.72;;;;;;;24.10;77.20;99719.06;7273020;40;20271;31
2023/08/21 06:16:28;;;;;;;6.55;5.78;;;;;;;24.45;76.19;99731.94;7355597;39;21260;31
2023/08/21 06:27:04;;;;;;;8.42;5.86;;;;;;;24.74;74.39;99728.16;7331520;39;21392;31
2023/08/21 06:32:38;;;;;;;7.53;5.90;;;;;;;24.87;75.18;99735.34;7340406;39;20255;31
2023/08/21 06:37:58;;;;;;;9.02;5.95;;;;;;;25.03;74.08;99735.38;7277425;39;20256;31
2023/08/21 06:43:18;;;;;;;6.95;5.60;;;;;;;25.13;73.01;99740.25;7275632;39;20252;31
2023/08/21 06:48:54;;;;;;;8.05;6.15;;;;;;;25.18;73.19;99739.50;7289943;39;20595;31
2023/08/21 06:54:29;;;;;;;8.30;6.60;;;;;;;25.22;73.06;99737.91;7316651;39;20455;31
2023/08/21 07:00:05;;;;;;;7.62;6.93;;;;;;;25.35;73.89;99741.22;7266410;40;20330;31
2023/08/21 07:05:41;;;;;;;8.47;6.67;;;;;;;25.45;73.14;99737.78;7195502;40;20272;31
2023/08/21 07:11:18;;;;;;;8.73;7.22;;;;;;;25.63;73.86;99743.06;7200926;40;20242;31
2023/08/21 07:16:53;;;;;;;8.95;6.90;;;;;;;25.80;72.47;99738.38;7213979;40;20245;31
2023/08/21 07:22:27;;;;;;;7.00;6.32;;;;;;;26.03;72.37;99743.72;7232332;40;20513;31
2023/08/21 07:27:47;;;;;;;9.13;6.90;;;;;;;26.27;71.10;99746.28;7249930;39;20258;31
2023/08/21 07:33:19;;;;;;;9.98;6.78;;;;;;;26.45;70.52;99746.00;7235225;40;20408;31
2023/08/21 07:43:54;;;;;;;9.68;7.25;;;;;;;26.73;69.31;99753.25;7241374;40;21335;31
2023/08/21 07:54:30;;;;;;;9.63;6.57;;;;;;;27.16;67.98;99755.97;7292116;39;20360;31
2023/08/21 08:00:08;;;;;;;10.27;6.47;;;;;;;27.38;66.80;99761.47;7334901;39;20330;31
2023/08/21 08:05:25;;;;;;;9.13;6.22;;;;;;;27.59;67.28;99770.84;7352773;39;20267;31
2023/08/21 08:11:00;;;;;;;7.45;6.50;;;;;;;27.78;67.16;99761.84;7374654;39;20375;31
2023/08/21 08:21:52;;;;;;;8.70;6.80;;;;;;;28.06;64.96;99763.44;7279759;39;20442;31
2023/08/21 08:32:13;;;;;;;7.62;6.85;;;;;;;28.44;64.56;99761.47;7317967;39;21219;31
2023/08/21 08:37:46;;;;;;;9.35;7.22;;;;;;;28.71;64.70;99766.91;7318438;39;20369;31
2023/08/21 08:43:18;;;;;;;7.57;6.75;;;;;;;28.92;63.48;99763.91;7304240;39;20290;31
2023/08/21 08:48:53;;;;;;;9.27;6.43;;;;;;;29.12;63.82;99755.66;7316292;39;20249;31
2023/08/21 08:54:29;;;;;;;7.93;6.32;;;;;;;29.39;62.64;99757.41;7306902;39;20255;31
2023/08/21 08:59:46;;;;;;;8.55;5.97;;;;;;;29.58;61.10;99758.53;7238694;40;20265;31
2023/08/21 09:05:04;;;;;;;6.85;6.15;;;;;;;29.70;61.00;99752.72;7234638;40;20253;31
2023/08/21 09:10:40;;;;;;;6.95;6.25;;;;;;;29.89;60.56;99745.47;7284138;40;20326;31
2023/08/21 09:16:14;;;;;;;7.82;5.75;;;;;;;30.00;59.09;99741.59;7287366;39;20327;31
2023/08/21 09:21:44;;;;;;;7.75;5.85;;;;;;;30.12;58.96;99747.69;7335729;39;20268;31
2023/08/21 09:27:17;;;;;;;6.53;5.77;;;;;;;30.28;58.80;99734.56;7288287;39;20419;31
2023/08/21 09:32:50;;;;;;;6.00;5.40;;;;;;;30.50;57.75;99737.84;7285634;39;20276;31
2023/08/21 09:38:20;;;;;;;6.50;5.30;;;;;;;30.65;56.57;99731.41;7303031;39;20268;31
2023/08/21 09:43:57;;;;;;;6.03;5.03;;;;;;;30.88;56.36;99736.31;7259058;40;20272;31
2023/08/21 09:49:32;;;;;;;6.93;4.97;;;;;;;30.96;54.42;99727.34;7262878;40;20381;31
2023/08/21 10:00:15;;;;;;;6.50;5.10;;;;;;;31.30;54.25;99717.13;7291489;39;20268;31
2023/08/21 10:10:51;;;;;;;8.32;4.65;;;;;;;31.41;52.78;99723.47;7271268;39;20318;31
2023/08/21 10:16:25;;;;;;;5.03;4.28;;;;;;;31.67;52.32;99715.75;7335670;39;20267;31
2023/08/21 10:21:42;;;;;;;7.85;4.47;;;;;;;31.91;52.68;99711.03;7281811;39;20267;31
2023/08/21 10:27:11;;;;;;;7.00;3.75;;;;;;;32.05;51.88;99712.00;7358281;39;20254;31
2023/08/21 10:32:44;;;;;;;5.18;4.50;;;;;;;32.00;50.92;99706.47;7236842;40;20468;31
2023/08/21 10:38:21;;;;;;;5.40;4.10;;;;;;;32.12;50.34;99700.56;7280374;39;20260;31
2023/08/21 10:43:52;;;;;;;6.30;4.30;;;;;;;32.39;50.07;99697.97;7313471;40;20271;31
2023/08/21 10:49:28;;;;;;;8.45;4.45;;;;;;;32.58;49.19;99698.03;7077762;39;21333;31
2023/08/21 10:55:03;;;;;;;8.00;4.70;;;;;;;32.74;49.09;99698.69;7313017;39;20345;31
2023/08/21 11:00:34;;;;;;;6.40;4.10;;;;;;;32.68;50.01;99692.34;7279595;40;20432;31
2023/08/21 11:06:16;;;;;;;6.15;4.82;;;;;;;33.00;48.33;99700.81;7273841;40;20418;31
2023/08/21 11:11:52;;;;;;;7.00;4.28;;;;;;;33.07;48.61;99694.88;7304073;39;20296;31
2023/08/21 11:17:24;;;;;;;6.95;4.20;;;;;;;33.05;47.99;99685.94;7252825;40;20250;31
2023/08/21 11:23:02;;;;;;;7.00;4.20;;;;;;;32.91;47.46;99683.06;7272650;40;20264;31
2023/08/21 11:28:36;;;;;;;4.48;3.90;;;;;;;33.18;47.18;99678.78;7195250;40;20265;31
2023/08/21 11:33:54;;;;;;;5.70;3.72;;;;;;;33.32;46.56;99679.69;7198253;40;20273;31
2023/08/21 11:39:29;;;;;;;9.36;3.74;;;;;;;33.29;46.62;99680.28;7249067;40;20260;31
2023/08/21 11:44:59;;;;;;;4.35;3.95;;;;;;;33.23;46.87;99675.91;7282411;39;21274;31
2023/08/21 11:50:35;;;;;;;4.18;3.65;;;;;;;33.45;45.93;99673.31;7250191;40;20283;31
2023/08/21 12:01:19;;;;;;;6.03;3.95;;;;;;;33.65;46.49;99664.59;7244824;40;20276;31
2023/08/21 12:06:59;;;;;;;4.18;3.75;;;;;;;33.75;44.72;99657.97;7234061;39;20245;31
2023/08/21 12:12:31;;;;;;;4.55;3.58;;;;;;;33.85;44.08;99655.00;7263460;40;20276;31
2023/08/21 12:23:11;;;;;;;5.10;4.03;;;;;;;34.17;44.76;99651.34;7333531;39;20277;31
2023/08/21 12:28:46;;;;;;;4.34;3.90;;;;;;;34.26;44.48;99644.72;7303477;39;20263;31
2023/08/21 12:34:18;;;;;;;8.25;4.10;;;;;;;34.27;45.13;99645.53;7325804;39;20344;31
2023/08/21 12:39:51;;;;;;;8.74;3.66;;;;;;;34.21;45.25;99635.56;7295684;40;20263;31
2023/08/21 12:45:12;;;;;;;6.32;3.62;;;;;;;34.30;44.88;99636.50;7225601;40;20258;31
2023/08/21 12:50:29;;;;;;;6.38;3.74;;;;;;;34.21;45.02;99628.00;7207178;40;20347;31
2023/08/21 12:56:02;;;;;;;4.28;3.50;;;;;;;34.07;44.44;99629.09;7286979;40;20253;31
2023/08/21 13:01:35;;;;;;;6.35;3.50;;;;;;;33.95;45.51;99624.03;7319486;39;22069;31
2023/08/21 13:07:06;;;;;;;6.18;4.06;;;;;;;33.79;45.49;99626.28;7249713;39;20348;31
2023/08/21 13:12:42;;;;;;;5.05;3.70;;;;;;;33.26;46.71;99628.63;7298730;39;20362;31
2023/08/21 13:18:17;;;;;;;9.40;4.30;;;;;;;33.34;47.02;99616.75;7263871;39;20261;31
2023/08/21 13:23:52;;;;;;;4.70;3.80;;;;;;;33.59;46.20;99615.47;7225806;40;20253;31
2023/08/21 13:29:25;;;;;;;5.98;3.74;;;;;;;33.79;45.82;99615.09;7200814;40;20246;31
2023/08/21 13:34:57;;;;;;;6.50;3.98;;;;;;;33.75;45.36;99605.66;7251967;40;20282;31
2023/08/21 13:40:17;;;;;;;4.82;3.90;;;;;;;34.02;45.50;99609.63;7273146;40;20256;31
2023/08/21 13:45:54;;;;;;;5.55;3.80;;;;;;;34.19;45.37;99604.25;7284713;40;20282;31
2023/08/21 13:51:14;;;;;;;8.96;3.66;;;;;;;34.07;44.59;99598.31;7257862;40;20323;31
2023/08/21 13:56:46;;;;;;;4.55;3.90;;;;;;;33.92;44.76;99602.28;7307495;39;20267;31
2023/08/21 14:02:18;;;;;;;3.80;3.40;;;;;;;33.58;45.62;99594.22;7288367;39;21464;31
2023/08/21 14:07:49;;;;;;;5.65;3.85;;;;;;;33.59;45.66;99590.28;7291759;39;20282;31
2023/08/21 14:13:09;;;;;;;6.50;3.62;;;;;;;33.69;45.38;99583.72;7323825;39;20251;31
2023/08/21 14:18:45;;;;;;;3.80;3.40;;;;;;;33.58;46.61;99577.44;7359809;39;20274;31
2023/08/21 14:24:20;;;;;;;5.48;3.90;;;;;;;33.65;46.12;99569.50;7345177;39;20252;31
2023/08/21 14:29:55;;;;;;;4.00;3.42;;;;;;;33.84;44.50;99570.25;7272002;39;20264;31
2023/08/21 14:35:28;;;;;;;5.84;3.88;;;;;;;33.67;44.55;99570.03;7230052;40;20245;31
2023/08/21 14:41:03;;;;;;;4.60;3.53;;;;;;;33.73;44.78;99571.59;7273269;40;21292;31
2023/08/21 14:46:38;;;;;;;7.20;3.45;;;;;;;33.92;43.01;99561.13;7217770;40;20265;31
2023/08/21 14:52:11;;;;;;;4.50;3.48;;;;;;;34.14;43.64;99556.78;7292780;39;21452;31
2023/08/21 14:57:29;;;;;;;4.28;2.70;;;;;;;34.25;43.87;99556.25;7312633;39;20263;31
2023/08/21 15:03:01;;;;;;;5.25;2.55;;;;;;;34.32;43.17;99545.44;7307912;39;20256;31
2023/08/21 15:08:37;;;;;;;4.12;2.42;;;;;;;34.17;42.50;99542.19;7242582;40;20438;31
2023/08/21 15:13:57;;;;;;;3.00;2.50;;;;;;;34.02;42.80;99540.50;7251173;40;20324;31
2023/08/21 15:19:29;;;;;;;3.42;2.53;;;;;;;34.13;42.29;99527.13;7282380;39;20244;31
2023/08/21 15:25:03;;;;;;;2.87;2.20;;;;;;;34.28;40.85;99526.78;7297203;39;20267;31
2023/08/21 15:30:20;;;;;;;3.83;2.35;;;;;;;34.24;41.07;99522.97;7270875;39;20255;31
2023/08/21 15:35:36;;;;;;;2.80;2.10;;;;;;;34.26;41.70;99520.69;7302936;39;20279;31
2023/08/21 15:41:09;;;;;;;2.63;2.00;;;;;;;34.39;40.37;99525.44;7307800;39;20650;31
2023/08/21 15:46:27;;;;;;;3.20;1.95;;;;;;;34.45;40.37;99521.34;7287143;39;20248;31
2023/08/21 15:51:58;;;;;;;2.85;2.00;;;;;;;34.31;38.63;99515.81;7337952;39;20361;31
2023/08/21 15:57:31;;;;;;;3.70;2.20;;;;;;;34.28;39.80;99508.03;7317188;39;21849;31
2023/08/21 16:03:06;;;;;;;2.70;2.00;;;;;;;34.31;40.74;99504.63;7275865;40;20268;31
2023/08/21 16:08:38;;;;;;;4.05;3.35;;;;;;;34.20;40.36;99491.16;7253528;40;20262;31
2023/08/21 16:14:13;;;;;;;2.78;2.00;;;;;;;34.14;40.74;99489.59;7243948;40;21565;31
2023/08/21 16:19:43;;;;;;;3.43;1.97;;;;;;;33.95;41.22;99498.13;7284323;40;20257;31
2023/08/21 16:25:15;;;;;;;5.05;2.10;;;;;;;33.66;41.71;99484.47;7224015;40;20256;31
2023/08/21 16:30:48;;;;;;;6.14;2.14;;;;;;;33.55;42.47;99487.75;7259793;39;20265;31
2023/08/21 16:36:20;;;;;;;3.68;2.24;;;;;;;33.44;43.90;99487.12;7232378;40;20250;31
2023/08/21 16:41:41;;;;;;;3.12;1.86;;;;;;;33.41;41.92;99480.19;7232595;40;20257;31
2023/08/21 16:47:16;;;;;;;2.20;1.90;;;;;;;33.27;42.92;99478.50;7274753;39;20260;31
2023/08/21 16:52:51;;;;;;;4.27;2.17;;;;;;;33.02;43.39;99483.44;7282088;39;20530;31
2023/08/21 16:58:27;;;;;;;2.67;2.10;;;;;;;32.87;43.50;99477.25;7260208;40;20284;31
2023/08/21 17:03:59;;;;;;;3.15;2.20;;;;;;;32.85;44.55;99479.56;7254601;40;20377;31
2023/08/21 17:09:17;;;;;;;3.70;1.95;;;;;;;32.84;44.91;99475.94;7040812;40;21287;31
2023/08/21 17:14:34;;;;;;;4.70;2.00;;;;;;;32.79;45.78;99483.56;7286445;39;20264;31
2023/08/21 17:20:05;;;;;;;4.95;2.30;;;;;;;32.68;47.08;99476.50;7269709;40;20353;31
2023/08/21 17:25:36;;;;;;;4.50;2.22;;;;;;;32.57;46.17;99475.78;7274855;39;20433;31
2023/08/21 17:31:09;;;;;;;7.72;2.50;;;;;;;32.43;47.88;99486.09;7310689;39;20244;31
2023/08/21 17:36:42;;;;;;;3.70;2.33;;;;;;;32.22;48.56;99484.72;7283379;39;20256;31
2023/08/21 17:42:00;;;;;;;3.12;2.50;;;;;;;32.09;48.62;99483.50;7234135;40;20392;31
2023/08/21 17:47:32;;;;;;;4.50;2.22;;;;;;;31.93;49.41;99479.25;7235183;40;20266;31
2023/08/21 17:53:08;;;;;;;5.75;2.50;;;;;;;31.79;49.47;99483.91;7216548;40;20276;31
2023/08/21 17:58:28;;;;;;;4.43;2.30;;;;;;;31.72;49.59;99478.72;7267828;39;20237;31
2023/08/21 18:03:45;;;;;;;3.42;2.38;;;;;;;31.53;50.49;99491.72;7303828;39;20353;31
2023/08/21 18:09:21;;;;;;;4.15;2.30;;;;;;;31.26;51.14;99490.34;7332740;39;20271;31
2023/08/21 18:20:00;;;;;;;4.24;2.62;;;;;;;30.91;52.78;99493.47;7311726;39;20287;31
2023/08/21 18:25:31;;;;;;;4.97;2.70;;;;;;;30.70;53.52;99495.59;7345363;39;20412;31
2023/08/21 18:31:06;;;;;;;5.30;2.75;;;;;;;30.54;53.42;99501.59;7351032;39;20278;31
2023/08/21 18:41:46;;;;;;;26.14;19.80;;;;;;;30.14;54.49;99503.50;7281843;39;20342;31
2023/08/21 18:47:03;;;;;;;6.46;4.24;;;;;;;29.95;54.79;99505.25;7293177;39;20358;31
2023/08/21 18:52:21;;;;;;;5.32;3.85;;;;;;;29.80;54.61;99508.06;7313761;39;20244;31
2023/08/21 18:57:54;;;;;;;7.20;3.87;;;;;;;29.62;55.20;99511.50;7314565;39;20268;31
2023/08/21 19:03:29;;;;;;;4.05;2.85;;;;;;;29.36;56.85;99506.00;7255789;40;20701;31
2023/08/21 19:09:01;;;;;;;5.75;3.10;;;;;;;29.26;57.02;99510.72;7290737;39;20266;31
2023/08/21 19:14:34;;;;;;;3.20;2.70;;;;;;;29.07;56.85;99507.69;7272484;40;20280;31
2023/08/21 19:20:09;;;;;;;4.62;2.74;;;;;;;29.00;57.77;99512.72;7268271;40;20250;31
2023/08/21 19:25:41;;;;;;;5.10;3.10;;;;;;;28.89;58.28;99516.59;7260856;40;20264;31
2023/08/21 19:31:17;;;;;;;4.65;2.70;;;;;;;28.78;57.79;99515.78;7306300;39;20244;31
2023/08/21 19:36:49;;;;;;;4.45;3.00;;;;;;;28.68;58.81;99516.56;7301701;39;20319;31
2023/08/21 19:42:24;;;;;;;4.60;2.90;;;;;;;28.57;57.97;99514.91;7282507;39;20261;31
2023/08/21 19:47:55;;;;;;;5.75;3.05;;;;;;;28.38;58.88;99513.78;7298041;39;20418;31
2023/08/21 19:53:12;;;;;;;6.70;3.63;;;;;;;28.32;59.59;99525.97;7284217;40;20241;31
2023/08/21 19:58:44;;;;;;;4.25;2.75;;;;;;;28.18;59.24;99522.03;7276191;39;20302;31
2023/08/21 20:04:15;;;;;;;5.70;2.95;;;;;;;28.09;60.38;99526.41;7283576;39;20252;31
2023/08/21 20:09:35;;;;;;;5.40;2.90;;;;;;;28.00;60.25;99517.81;7313975;39;20303;31
2023/08/21 20:14:57;;;;;;;4.05;3.40;;;;;;;27.90;60.04;99519.72;7313551;39;20435;31
2023/08/21 20:20:29;;;;;;;4.97;3.42;;;;;;;27.87;59.78;99523.00;7274790;40;20273;31
2023/08/21 20:26:02;;;;;;;4.85;3.20;;;;;;;27.74;58.97;99529.91;7291420;39;20271;31
2023/08/21 20:31:18;;;;;;;3.95;2.60;;;;;;;27.61;58.83;99528.44;7304189;39;20426;31
2023/08/21 20:36:54;;;;;;;3.55;2.30;;;;;;;27.50;59.50;99531.44;7314555;39;20253;31
2023/08/21 20:42:15;;;;;;;3.70;2.67;;;;;;;27.49;59.55;99524.25;7307993;39;20449;31
2023/08/21 20:47:35;;;;;;;3.05;2.28;;;;;;;27.44;59.00;99525.00;7252065;40;20245;31
2023/08/21 20:53:11;;;;;;;3.83;2.70;;;;;;;27.37;60.53;99523.59;7254397;39;20296;31
2023/08/21 20:58:28;;;;;;;3.28;2.40;;;;;;;27.37;59.54;99523.59;7210524;39;20426;31
2023/08/21 21:03:48;;;;;;;4.60;2.33;;;;;;;27.40;59.24;99512.81;7296207;40;20259;31
2023/08/21 21:09:21;;;;;;;4.85;2.90;;;;;;;27.39;58.54;99518.59;7297264;40;20265;31
2023/08/21 21:19:57;;;;;;;3.90;2.40;;;;;;;27.64;58.95;99508.53;7233135;40;21315;31
2023/08/21 21:25:33;;;;;;;5.28;2.50;;;;;;;27.79;58.38;99516.91;7241489;40;20489;31
2023/08/21 21:36:08;;;;;;;4.10;2.70;;;;;;;27.77;58.59;99509.97;7354105;39;21572;31
2023/08/21 21:46:48;;;;;;;3.60;2.50;;;;;;;27.55;59.60;99523.19;7327829;39;20269;31
2023/08/21 21:52:23;;;;;;;4.57;2.78;;;;;;;27.48;59.70;99520.63;7314482;39;20337;31
2023/08/21 21:57:55;;;;;;;3.25;2.80;;;;;;;27.42;60.05;99521.69;7287442;39;20274;31
2023/08/21 22:03:31;;;;;;;3.75;2.60;;;;;;;27.37;60.31;99527.19;7292340;39;20320;31
2023/08/21 22:08:48;;;;;;;3.50;3.00;;;;;;;27.24;61.33;99522.13;7274989;39;20474;31
2023/08/21 22:14:05;;;;;;;7.28;3.60;;;;;;;26.95;62.31;99529.09;7257423;40;20264;31
2023/08/21 22:24:41;;;;;;;6.68;3.42;;;;;;;26.68;63.23;99520.84;7288976;39;21187;31
2023/08/21 22:30:16;;;;;;;3.85;3.20;;;;;;;26.60;64.30;99522.16;7253960;40;20387;31
2023/08/21 22:35:33;;;;;;;5.20;3.07;;;;;;;26.49;63.92;99523.16;7281821;39;20272;31
2023/08/21 22:41:07;;;;;;;3.43;3.13;;;;;;;26.47;64.48;99525.34;7275389;40;20337;31
2023/08/21 22:46:42;;;;;;;6.60;3.50;;;;;;;26.46;64.04;99520.91;7226101;40;20237;31
2023/08/21 22:52:03;;;;;;;5.40;3.20;;;;;;;26.48;63.64;99526.19;7269870;40;20382;31
2023/08/21 22:57:40;;;;;;;5.18;3.87;;;;;;;26.39;64.01;99523.91;7264158;40;20569;31
2023/08/21 23:02:58;;;;;;;5.55;3.10;;;;;;;26.30;63.80;99519.94;7293854;39;20420;31
2023/08/21 23:08:18;;;;;;;4.57;2.62;;;;;;;26.19;64.32;99522.84;7287320;40;20437;31
2023/08/21 23:13:53;;;;;;;5.90;2.70;;;;;;;26.12;64.16;99523.03;7362843;39;20247;31
2023/08/21 23:19:29;;;;;;;3.80;2.80;;;;;;;26.14;64.97;99514.47;7363836;39;20467;31
2023/08/21 23:25:05;;;;;;;3.22;2.77;;;;;;;26.06;64.33;99512.19;7345383;39;20255;31
2023/08/21 23:30:39;;;;;;;5.15;2.85;;;;;;;25.90;64.71;99508.41;7313777;39;20248;31
2023/08/21 23:36:14;;;;;;;6.95;2.75;;;;;;;25.85;64.76;99509.19;7319283;39;20248;31
2023/08/21 23:41:46;;;;;;;3.75;2.85;;;;;;;25.73;65.16;99514.00;7325061;39;20417;31
2023/08/21 23:47:16;;;;;;;4.75;2.85;;;;;;;25.71;65.59;99505.16;7331888;39;21451;31
2023/08/21 23:52:34;;;;;;;3.52;2.50;;;;;;;25.47;65.56;99499.00;7155275;39;20237;31
2023/08/21 23:57:54;;;;;;;5.36;2.78;;;;;;;25.25;66.46;99500.06;7295716;40;20248;31
